Time;durP1;ratioP1;P1;durP2;ratioP2;P2;SDS_P1;SDS_P2;PMS_P1;PMS_P2;Temp;Humidity;BMP_temperature;BMP_pressure;BME280_temperature;BME280_humidity;BME280_pressure;Samples;Min_cycle;Max_cycle;Signal;HPM_P1;HPM_P2
2022/02/28 00:02:05;;;;;;;8.50;3.70;;;5.80;50.60;;;;;;2508762;55;21071;-64
2022/02/28 00:04:37;;;;;;;7.82;3.58;;;5.80;50.60;;;;;;2278752;55;21066;-63
2022/02/28 00:07:04;;;;;;;6.68;3.25;;;5.80;50.50;;;;;;2361400;55;21492;-64
2022/02/28 00:09:42;;;;;;;5.80;2.92;;;5.80;50.60;;;;;;2395802;55;20988;-64
2022/02/28 00:12:09;;;;;;;7.75;3.00;;;5.80;50.40;;;;;;2267105;55;21054;-63
2022/02/28 00:14:38;;;;;;;5.75;3.05;;;5.70;50.50;;;;;;2278932;55;21797;-64
2022/02/28 00:17:06;;;;;;;5.65;2.92;;;5.70;50.60;;;;;;2280655;55;21046;-63
2022/02/28 00:19:32;;;;;;;5.97;3.22;;;5.60;50.50;;;;;;2273853;56;21018;-64
2022/02/28 00:21:58;;;;;;;6.78;3.60;;;5.60;50.50;;;;;;2276067;56;20928;-64
2022/02/28 00:24:25;;;;;;;7.62;3.20;;;5.50;50.50;;;;;;2277277;55;20967;-64
2022/02/28 00:26:54;;;;;;;5.43;2.90;;;5.50;50.60;;;;;;2270582;55;21121;-63
2022/02/28 00:29:22;;;;;;;7.35;3.00;;;5.40;50.60;;;;;;2274040;56;20948;-62
2022/02/28 00:31:48;;;;;;;5.72;2.85;;;5.40;50.60;;;;;;2275129;56;21061;-63
2022/02/28 00:34:15;;;;;;;5.07;2.70;;;5.40;50.60;;;;;;2278586;56;21078;-62
2022/02/28 00:36:41;;;;;;;5.03;2.60;;;5.30;50.60;;;;;;2326173;55;20907;-63
2022/02/28 00:39:07;;;;;;;5.47;2.47;;;5.30;50.60;;;;;;2280233;56;20935;-63
2022/02/28 00:41:35;;;;;;;6.10;3.05;;;5.20;50.50;;;;;;2281995;56;20994;-65
2022/02/28 00:44:03;;;;;;;5.95;2.60;;;5.20;50.60;;;;;;2276185;55;20986;-63
2022/02/28 00:46:30;;;;;;;6.45;3.20;;;5.10;50.50;;;;;;2280796;56;21007;-63
2022/02/28 00:48:56;;;;;;;6.45;2.80;;;5.00;50.40;;;;;;2280077;56;21034;-63
2022/02/28 00:51:25;;;;;;;5.43;2.70;;;4.90;50.40;;;;;;2276882;56;22005;-63
2022/02/28 00:53:51;;;;;;;6.30;3.05;;;4.90;50.60;;;;;;2280041;56;21416;-64
2022/02/28 00:56:18;;;;;;;9.15;2.87;;;4.80;50.60;;;;;;2276663;55;20990;-64
2022/02/28 00:58:44;;;;;;;5.32;2.70;;;4.70;50.70;;;;;;2282234;55;20998;-64
2022/02/28 01:01:11;;;;;;;5.07;2.55;;;4.70;50.80;;;;;;2277684;55;20951;-63
2022/02/28 01:03:37;;;;;;;5.43;2.70;;;4.60;50.80;;;;;;2280445;55;20955;-63
2022/02/28 01:06:05;;;;;;;4.70;2.37;;;4.50;50.80;;;;;;2280560;55;20947;-63
2022/02/28 01:08:33;;;;;;;4.47;2.58;;;4.50;50.90;;;;;;2270947;56;20995;-64
2022/02/28 01:10:59;;;;;;;4.60;2.08;;;4.40;50.90;;;;;;2270811;56;20907;-64
2022/02/28 01:13:26;;;;;;;5.43;2.10;;;4.30;50.90;;;;;;2279963;56;21526;-64
2022/02/28 01:15:52;;;;;;;5.25;2.22;;;4.30;50.90;;;;;;2280051;55;20943;-64
2022/02/28 01:18:18;;;;;;;3.80;1.90;;;4.20;50.90;;;;;;2513058;55;20995;-62
2022/02/28 01:20:47;;;;;;;6.05;2.72;;;4.20;51.00;;;;;;2504797;55;20927;-63
2022/02/28 01:23:17;;;;;;;5.93;2.95;;;4.10;51.00;;;;;;2269295;56;21889;-64
2022/02/28 01:25:43;;;;;;;4.70;2.25;;;4.10;51.00;;;;;;2279686;56;20979;-63
2022/02/28 01:28:28;;;;;;;4.25;2.25;;;4.10;51.10;;;;;;2271655;56;20987;-64
2022/02/28 01:30:55;;;;;;;5.20;2.37;;;4.00;51.50;;;;;;2275991;56;20931;-63
2022/02/28 01:33:54;;;;;;;5.15;2.28;;;3.90;50.90;;;;;;2280296;56;20943;-62
2022/02/28 01:36:21;;;;;;;6.28;2.50;;;3.90;50.90;;;;;;2257988;57;20935;-64
2022/02/28 01:38:47;;;;;;;6.45;2.80;;;3.80;51.00;;;;;;2280040;55;21047;-62
2022/02/28 01:41:29;;;;;;;5.47;2.70;;;3.80;51.10;;;;;;2338468;55;21468;-64
2022/02/28 01:43:56;;;;;;;4.97;2.67;;;3.70;51.00;;;;;;2275449;56;21119;-63
2022/02/28 01:46:22;;;;;;;6.20;2.80;;;3.60;51.10;;;;;;2301453;55;21757;-62
2022/02/28 01:48:48;;;;;;;6.50;3.00;;;3.60;51.30;;;;;;2279652;56;20935;-62
2022/02/28 01:51:14;;;;;;;5.25;2.78;;;3.50;51.30;;;;;;2512547;55;20923;-63
2022/02/28 01:53:41;;;;;;;6.30;2.70;;;3.50;51.40;;;;;;2296233;55;20943;-64
2022/02/28 01:56:07;;;;;;;5.15;2.60;;;3.50;51.50;;;;;;2280322;55;20947;-62
2022/02/28 01:58:45;;;;;;;6.37;3.05;;;3.40;51.50;;;;;;2279721;56;21003;-64
2022/02/28 02:01:11;;;;;;;5.80;2.83;;;3.40;52.20;;;;;;2280443;56;20994;-63
2022/02/28 02:03:38;;;;;;;5.47;2.50;;;3.30;51.60;;;;;;2280249;56;20938;-63
2022/02/28 02:06:09;;;;;;;5.90;2.60;;;3.30;51.60;;;;;;2280559;56;20943;-63
2022/02/28 02:08:37;;;;;;;5.50;2.42;;;3.20;51.60;;;;;;2509953;55;21090;-63
2022/02/28 02:11:03;;;;;;;7.00;2.80;;;3.20;51.70;;;;;;2279509;55;21047;-64
2022/02/28 02:13:36;;;;;;;5.18;2.60;;;3.20;51.80;;;;;;2280357;56;22139;-63
2022/02/28 02:16:04;;;;;;;6.90;2.87;;;3.10;51.70;;;;;;2280454;56;20940;-64
2022/02/28 02:18:31;;;;;;;6.20;2.87;;;3.10;51.80;;;;;;2280396;55;20991;-64
2022/02/28 02:20:58;;;;;;;5.37;2.35;;;3.00;51.80;;;;;;2280349;55;21019;-64
2022/02/28 02:23:27;;;;;;;5.37;2.65;;;3.00;51.90;;;;;;2280710;56;20928;-62
2022/02/28 02:25:55;;;;;;;6.35;3.25;;;2.80;51.80;;;;;;2512835;55;20959;-63
2022/02/28 02:28:22;;;;;;;6.68;2.85;;;2.90;51.90;;;;;;2280764;56;20919;-63
2022/02/28 02:30:53;;;;;;;8.32;2.83;;;2.90;52.00;;;;;;2280257;56;20963;-63
2022/02/28 02:33:20;;;;;;;8.18;3.12;;;2.80;52.00;;;;;;2280500;56;22308;-64
2022/02/28 02:35:53;;;;;;;8.43;3.40;;;2.80;52.10;;;;;;2280278;56;20935;-62
2022/02/28 02:38:19;;;;;;;9.13;3.47;;;2.80;52.20;;;;;;2433428;55;21497;-62
2022/02/28 02:40:50;;;;;;;7.75;3.17;;;2.70;52.20;;;;;;2279797;56;21031;-64
2022/02/28 02:43:16;;;;;;;17.23;6.60;;;2.70;52.30;;;;;;2280177;56;20955;-63
2022/02/28 02:45:45;;;;;;;9.73;4.30;;;2.70;52.40;;;;;;2279963;56;21015;-66
2022/02/28 02:48:24;;;;;;;8.52;3.50;;;2.70;52.50;;;;;;2280318;56;20943;-64
2022/02/28 02:50:51;;;;;;;6.43;3.03;;;2.70;52.60;;;;;;2279912;56;21033;-64
2022/02/28 02:53:18;;;;;;;7.15;2.90;;;2.70;52.60;;;;;;2279536;55;20951;-64
2022/02/28 02:55:44;;;;;;;7.03;3.00;;;2.70;52.70;;;;;;2281855;55;20978;-63
2022/02/28 02:58:13;;;;;;;8.45;2.90;;;2.70;52.70;;;;;;2279129;55;20935;-64
2022/02/28 03:00:42;;;;;;;9.23;3.58;;;2.70;52.80;;;;;;2280291;56;20971;-63
2022/02/28 03:03:09;;;;;;;6.15;3.08;;;2.70;52.80;;;;;;2316098;55;21412;-64
2022/02/28 03:05:36;;;;;;;6.53;2.97;;;2.70;52.80;;;;;;2280048;56;20951;-64
2022/02/28 03:08:03;;;;;;;6.37;3.05;;;2.70;52.80;;;;;;2322972;55;20924;-64
2022/02/28 03:10:29;;;;;;;6.97;3.10;;;2.70;52.80;;;;;;2412721;55;21019;-63
2022/02/28 03:12:55;;;;;;;7.60;3.53;;;2.80;52.90;;;;;;2279849;55;20951;-64
2022/02/28 03:15:21;;;;;;;6.40;2.97;;;2.70;52.80;;;;;;2387248;55;20955;-64
2022/02/28 03:17:48;;;;;;;6.80;2.90;;;2.70;52.90;;;;;;2279594;55;21485;-64
2022/02/28 03:20:17;;;;;;;9.02;3.37;;;2.80;52.90;;;;;;2279882;55;21416;-64
2022/02/28 03:22:46;;;;;;;6.25;2.58;;;2.80;52.90;;;;;;2280032;56;20986;-64
2022/02/28 03:25:12;;;;;;;6.37;2.87;;;2.80;52.90;;;;;;2283984;55;20939;-65
2022/02/28 03:27:39;;;;;;;6.05;2.83;;;2.80;52.90;;;;;;2330941;55;20936;-64
2022/02/28 03:30:05;;;;;;;5.70;3.10;;;2.80;53.00;;;;;;2280327;56;20991;-64
2022/02/28 03:32:32;;;;;;;7.43;3.37;;;2.80;53.00;;;;;;2349857;55;1480384;-63
2022/02/28 03:34:58;;;;;;;7.32;3.53;;;2.80;53.00;;;;;;2280484;56;21033;-64
2022/02/28 03:37:24;;;;;;;7.57;3.00;;;2.80;53.00;;;;;;2284509;55;21112;-65
2022/02/28 03:39:51;;;;;;;6.43;3.03;;;2.80;53.00;;;;;;2274176;55;21025;-64
2022/02/28 03:42:17;;;;;;;8.60;3.40;;;2.80;53.10;;;;;;2276716;55;21543;-64
2022/02/28 03:44:43;;;;;;;6.50;3.17;;;2.80;53.10;;;;;;2279375;56;21106;-65
2022/02/28 03:47:10;;;;;;;5.78;3.12;;;2.80;53.00;;;;;;2283678;55;21405;-63
2022/02/28 03:49:38;;;;;;;8.10;3.10;;;2.80;53.10;;;;;;2279780;55;20931;-64
2022/02/28 03:52:06;;;;;;;5.50;2.80;;;2.80;53.10;;;;;;2279663;56;20968;-65
2022/02/28 03:54:34;;;;;;;5.12;2.85;;;2.80;53.10;;;;;;2283315;55;20994;-64
2022/02/28 03:57:01;;;;;;;6.43;2.72;;;2.80;53.70;;;;;;2279013;55;20958;-65
2022/02/28 03:59:27;;;;;;;5.87;2.80;;;2.80;53.00;;;;;;2279469;55;21016;-64
2022/02/28 04:01:53;;;;;;;11.55;3.42;;;2.80;53.00;;;;;;2279857;56;20998;-64
2022/02/28 04:04:23;;;;;;;5.12;2.60;;;2.80;53.20;;;;;;2280226;56;20951;-64
2022/02/28 04:06:52;;;;;;;5.28;2.70;;;2.70;52.80;;;;;;2280221;56;20936;-63
2022/02/28 04:09:22;;;;;;;6.97;3.30;;;2.70;52.80;;;;;;2279832;56;20927;-64
2022/02/28 04:11:48;;;;;;;5.53;2.70;;;2.70;52.80;;;;;;2279947;56;21464;-63
2022/02/28 04:14:15;;;;;;;6.60;2.83;;;2.70;52.80;;;;;;2280470;56;20931;-64
2022/02/28 04:16:41;;;;;;;5.90;2.90;;;2.70;52.80;;;;;;2280265;56;21628;-63
2022/02/28 04:19:08;;;;;;;7.68;3.67;;;2.60;52.70;;;;;;2280327;56;21362;-64
2022/02/28 04:21:35;;;;;;;7.57;3.53;;;2.60;52.80;;;;;;2280882;56;21434;-63
2022/02/28 04:24:01;;;;;;;7.90;3.60;;;2.50;52.70;;;;;;2280515;56;21064;-66
2022/02/28 04:26:27;;;;;;;7.55;3.22;;;2.50;52.70;;;;;;2280590;56;21483;-64
2022/02/28 04:28:56;;;;;;;8.20;3.58;;;2.50;52.80;;;;;;2316294;55;20974;-64
2022/02/28 04:31:23;;;;;;;9.00;3.30;;;2.50;52.80;;;;;;2281298;55;20987;-63
2022/02/28 04:33:49;;;;;;;8.18;3.50;;;2.40;52.90;;;;;;2513060;55;20922;-63
2022/02/28 04:36:16;;;;;;;8.73;3.83;;;2.40;53.00;;;;;;2312156;55;21676;-65
2022/02/28 04:38:43;;;;;;;19.37;5.72;;;2.40;53.00;;;;;;2280072;55;20903;-66
2022/02/28 04:41:09;;;;;;;11.77;4.78;;;2.40;53.10;;;;;;2281668;55;20923;-65
2022/02/28 04:43:36;;;;;;;9.98;4.12;;;2.30;53.00;;;;;;2279982;56;20935;-64
2022/02/28 04:46:02;;;;;;;10.85;3.55;;;2.30;53.60;;;;;;2279848;55;20953;-65
2022/02/28 04:49:01;;;;;;;7.82;3.35;;;2.30;53.10;;;;;;2277092;55;20939;-64
2022/02/28 04:51:28;;;;;;;9.07;3.90;;;2.30;53.10;;;;;;2276050;56;20995;-64
2022/02/28 04:53:54;;;;;;;8.15;3.97;;;2.30;53.10;;;;;;2274773;56;21459;-65
2022/02/28 04:56:22;;;;;;;6.65;3.58;;;2.20;53.10;;;;;;2277754;56;20923;-63
2022/02/28 04:58:52;;;;;;;5.35;2.50;;;2.20;53.20;;;;;;2274467;56;20919;-65
2022/02/28 05:01:18;;;;;;;7.22;3.12;;;2.20;53.20;;;;;;2280425;56;21773;-64
2022/02/28 05:03:48;;;;;;;6.82;2.75;;;2.10;53.10;;;;;;2279575;56;21401;-63
2022/02/28 05:06:14;;;;;;;8.93;3.30;;;2.10;53.10;;;;;;2260458;56;20961;-63
2022/02/28 05:08:56;;;;;;;7.95;3.37;;;2.10;53.20;;;;;;2286522;55;20959;-63
2022/02/28 05:11:22;;;;;;;7.70;3.42;;;2.10;53.20;;;;;;2433020;55;20989;-63
2022/02/28 05:13:49;;;;;;;8.32;3.83;;;2.00;53.10;;;;;;2292383;55;21022;-63
2022/02/28 05:16:24;;;;;;;7.65;3.62;;;2.00;53.20;;;;;;2284444;55;20949;-63
2022/02/28 05:18:50;;;;;;;8.10;3.87;;;2.00;53.20;;;;;;2447098;55;20970;-63
2022/02/28 05:21:17;;;;;;;6.30;3.10;;;2.00;53.20;;;;;;2289641;55;21931;-65
2022/02/28 05:23:43;;;;;;;7.22;2.97;;;1.90;53.20;;;;;;2519737;55;20978;-64
2022/02/28 05:26:12;;;;;;;10.02;3.50;;;1.90;53.20;;;;;;2308443;55;20962;-64
2022/02/28 05:28:39;;;;;;;7.70;3.85;;;1.90;53.20;;;;;;2523673;55;21728;-65
2022/02/28 05:31:05;;;;;;;8.63;4.85;;;1.80;53.20;;;;;;2284304;55;21032;-65
2022/02/28 05:34:12;;;;;;;8.35;4.37;;;1.80;53.30;;;;;;2297687;55;21002;-65
2022/02/28 05:36:38;;;;;;;11.32;4.53;;;1.80;53.40;;;;;;2409425;55;21489;-64
2022/02/28 05:39:04;;;;;;;8.25;4.32;;;1.70;53.40;;;;;;2305901;55;21016;-63
2022/02/28 05:41:30;;;;;;;8.88;4.30;;;1.70;53.50;;;;;;2470548;55;21025;-65
2022/02/28 05:47:54;;;;;;;8.57;4.28;;;1.70;53.70;;;;;;2333559;55;20947;-65
2022/02/28 05:50:21;;;;;;;7.85;3.75;;;1.70;53.70;;;;;;2289448;55;20994;-64
2022/02/28 05:52:49;;;;;;;10.00;4.62;;;1.60;53.70;;;;;;2523789;55;20977;-63
2022/02/28 05:55:16;;;;;;;9.88;4.75;;;1.60;53.70;;;;;;2289344;55;20958;-63
2022/02/28 05:57:44;;;;;;;12.55;5.07;;;1.70;53.80;;;;;;2303160;55;20957;-64
2022/02/28 06:03:38;;;;;;;9.68;4.80;;;1.60;53.80;;;;;;2426819;55;21014;-66
2022/02/28 06:06:04;;;;;;;11.10;5.00;;;1.60;53.80;;;;;;2285688;55;21869;-65
2022/02/28 06:08:30;;;;;;;12.50;5.40;;;1.60;53.90;;;;;;2289676;55;21009;-65
2022/02/28 06:10:57;;;;;;;14.60;5.90;;;1.60;53.90;;;;;;2311604;55;21029;-63
2022/02/28 06:13:24;;;;;;;14.48;6.35;;;1.50;53.90;;;;;;2284304;55;20958;-65
2022/02/28 06:15:50;;;;;;;11.73;5.30;;;1.50;54.00;;;;;;2289305;55;21025;-65
2022/02/28 06:18:25;;;;;;;11.75;5.65;;;1.50;54.00;;;;;;2284967;55;20986;-64
2022/02/28 06:20:52;;;;;;;104.53;27.52;;;1.50;54.00;;;;;;2290090;55;20942;-65
2022/02/28 06:23:19;;;;;;;66.53;20.80;;;1.50;54.00;;;;;;2289306;55;20942;-66
2022/02/28 06:25:45;;;;;;;45.22;15.40;;;1.50;54.00;;;;;;2289843;55;20986;-65
2022/02/28 06:28:11;;;;;;;42.90;14.40;;;1.50;54.00;;;;;;2409361;55;20994;-63
2022/02/28 06:30:38;;;;;;;39.58;13.70;;;1.50;54.00;;;;;;2289362;55;20952;-64
2022/02/28 06:33:05;;;;;;;37.38;12.93;;;1.50;54.10;;;;;;2289109;55;20946;-64
2022/02/28 06:35:31;;;;;;;28.73;10.23;;;1.50;54.10;;;;;;2289100;55;21501;-65
2022/02/28 06:38:00;;;;;;;23.67;8.38;;;1.40;54.10;;;;;;2288401;55;20970;-65
2022/02/28 06:40:27;;;;;;;21.95;8.10;;;1.40;54.10;;;;;;2266446;55;20966;-64
2022/02/28 06:42:53;;;;;;;19.60;8.07;;;1.40;54.10;;;;;;2523298;55;20995;-65
2022/02/28 06:45:23;;;;;;;24.87;9.32;;;1.40;54.10;;;;;;2282804;55;20993;-65
2022/02/28 06:47:49;;;;;;;26.25;9.18;;;1.40;54.20;;;;;;2289053;55;21077;-65
2022/02/28 06:50:16;;;;;;;23.73;8.02;;;1.40;54.30;;;;;;2487868;55;21022;-64
2022/02/28 06:52:42;;;;;;;18.05;6.87;;;1.40;54.30;;;;;;2286572;54;20962;-63
2022/02/28 06:55:09;;;;;;;23.02;8.80;;;1.40;54.30;;;;;;2289229;55;20934;-64
2022/02/28 06:57:35;;;;;;;19.77;8.93;;;1.40;54.40;;;;;;2289051;55;20950;-66
2022/02/28 07:00:03;;;;;;;19.80;8.35;;;1.40;54.50;;;;;;2288246;55;21062;-64
2022/02/28 07:02:32;;;;;;;18.80;8.52;;;1.40;55.20;;;;;;2289067;55;20998;-64
2022/02/28 07:04:59;;;;;;;19.87;7.95;;;1.40;54.60;;;;;;2266240;56;21034;-65
2022/02/28 07:07:25;;;;;;;17.30;7.45;;;1.40;54.60;;;;;;2288468;55;21456;-65
2022/02/28 07:09:52;;;;;;;14.40;8.15;;;1.50;54.80;;;;;;2288132;55;20985;-64
2022/02/28 07:12:20;;;;;;;16.33;7.75;;;1.50;54.80;;;;;;2289210;55;21511;-65
2022/02/28 07:14:48;;;;;;;17.27;8.40;;;1.50;54.90;;;;;;2289708;54;20962;-64
2022/02/28 07:17:15;;;;;;;13.93;6.90;;;1.50;55.00;;;;;;2288450;55;21375;-65
2022/02/28 07:19:41;;;;;;;13.68;6.18;;;1.60;55.20;;;;;;2289024;55;21626;-65
2022/02/28 07:22:08;;;;;;;9.45;4.65;;;1.60;55.30;;;;;;2419327;55;21013;-63
2022/02/28 07:24:34;;;;;;;13.77;5.50;;;1.60;55.30;;;;;;2288435;55;20959;-65
2022/02/28 07:27:01;;;;;;;11.90;5.47;;;1.70;55.30;;;;;;2288469;55;21320;-65
2022/02/28 07:29:28;;;;;;;11.82;5.12;;;1.70;55.40;;;;;;2290140;55;21033;-63
2022/02/28 07:31:54;;;;;;;9.68;4.55;;;1.80;55.50;;;;;;2289801;55;21654;-65
2022/02/28 07:34:23;;;;;;;8.98;4.78;;;1.80;55.50;;;;;;2291344;55;20982;-63
2022/02/28 07:36:49;;;;;;;11.32;5.30;;;1.90;55.60;;;;;;2285104;54;21471;-64
2022/02/28 07:39:18;;;;;;;12.55;4.50;;;1.90;55.60;;;;;;2289185;55;20970;-64
2022/02/28 07:41:45;;;;;;;8.98;4.32;;;2.00;55.70;;;;;;2287661;55;22108;-63
2022/02/28 07:44:13;;;;;;;8.40;4.37;;;2.00;55.70;;;;;;2293474;54;20955;-65
2022/02/28 07:46:41;;;;;;;10.98;5.20;;;2.10;55.80;;;;;;2268349;54;20954;-63
2022/02/28 07:49:07;;;;;;;10.38;5.00;;;2.20;55.90;;;;;;2465898;55;20957;-64
2022/02/28 07:51:33;;;;;;;8.90;4.93;;;2.20;55.90;;;;;;2287773;55;21002;-63
2022/02/28 07:54:00;;;;;;;8.73;4.75;;;2.30;56.00;;;;;;2288311;55;20946;-63
2022/02/28 07:56:28;;;;;;;12.32;5.53;;;2.40;56.10;;;;;;2294513;55;20926;-64
2022/02/28 07:58:56;;;;;;;9.90;4.75;;;2.40;56.10;;;;;;2296671;55;20966;-64
2022/02/28 08:01:23;;;;;;;8.60;4.43;;;2.50;55.80;;;;;;2289198;55;21041;-65
2022/02/28 08:03:52;;;;;;;9.30;4.68;;;2.60;56.30;;;;;;2289389;55;21805;-65
2022/02/28 08:06:19;;;;;;;9.25;4.78;;;2.60;56.30;;;;;;2523419;55;20938;-63
2022/02/28 08:08:45;;;;;;;9.30;4.95;;;2.70;56.30;;;;;;2289734;55;21014;-64
2022/02/28 08:11:13;;;;;;;10.57;5.68;;;2.80;56.40;;;;;;2285572;55;21018;-63
2022/02/28 08:13:39;;;;;;;10.57;5.40;;;2.90;56.40;;;;;;2289162;55;21487;-64
2022/02/28 08:16:05;;;;;;;12.00;4.93;;;2.90;56.40;;;;;;2287519;55;21758;-62
2022/02/28 08:18:35;;;;;;;9.55;5.20;;;3.00;56.40;;;;;;2287951;55;21029;-64
2022/02/28 08:21:01;;;;;;;9.93;5.25;;;3.10;56.50;;;;;;2283456;55;21138;-64
2022/02/28 08:23:28;;;;;;;8.65;4.47;;;3.20;56.60;;;;;;2371944;55;21109;-64
2022/02/28 08:25:54;;;;;;;9.80;5.28;;;3.30;56.60;;;;;;2292894;55;21393;-63
2022/02/28 08:28:20;;;;;;;10.25;5.57;;;3.40;56.60;;;;;;2284655;55;21077;-65
2022/02/28 08:30:47;;;;;;;9.55;5.18;;;3.40;56.60;;;;;;2287352;55;20961;-63
2022/02/28 08:33:14;;;;;;;11.85;6.15;;;3.60;56.70;;;;;;2522638;55;20957;-64
2022/02/28 08:35:40;;;;;;;11.85;6.25;;;3.60;56.70;;;;;;2288967;55;20994;-64
2022/02/28 08:38:07;;;;;;;12.60;5.65;;;3.70;56.80;;;;;;2286399;55;21060;-63
2022/02/28 08:40:33;;;;;;;9.95;5.62;;;3.80;56.80;;;;;;2289163;55;21276;-63
2022/02/28 08:43:00;;;;;;;10.05;5.20;;;4.00;57.00;;;;;;2288628;55;21021;-63
2022/02/28 08:45:26;;;;;;;10.63;5.30;;;4.10;57.50;;;;;;2304467;55;20937;-65
2022/02/28 08:47:53;;;;;;;9.32;5.07;;;4.30;58.80;;;;;;2283190;55;20970;-64
2022/02/28 08:50:19;;;;;;;9.13;4.55;;;4.60;60.40;;;;;;2287603;54;20938;-65
2022/02/28 08:52:46;;;;;;;7.60;4.72;;;5.00;62.20;;;;;;2288016;55;21010;-65
2022/02/28 08:55:12;;;;;;;7.85;4.65;;;5.50;63.60;;;;;;2376867;55;22044;-66
2022/02/28 08:57:38;;;;;;;8.05;4.50;;;6.00;64.50;;;;;;2288799;55;21053;-66
2022/02/28 09:00:06;;;;;;;9.02;5.15;;;6.60;65.40;;;;;;2288785;55;20954;-64
2022/02/28 09:02:32;;;;;;;10.07;5.05;;;7.10;65.50;;;;;;2288702;55;21065;-66
2022/02/28 09:05:01;;;;;;;10.25;5.25;;;7.70;65.30;;;;;;2288517;55;20985;-66
2022/02/28 09:07:28;;;;;;;7.62;5.25;;;8.20;64.70;;;;;;2288504;55;21010;-66
2022/02/28 09:09:54;;;;;;;8.50;5.45;;;8.70;63.60;;;;;;2289021;55;20934;-66
2022/02/28 09:12:21;;;;;;;8.80;5.37;;;9.10;62.30;;;;;;2523662;55;21481;-66
2022/02/28 09:14:47;;;;;;;7.20;4.60;;;9.40;61.20;;;;;;2288524;54;20927;-65
2022/02/28 09:17:14;;;;;;;10.15;5.37;;;9.70;60.30;;;;;;2288160;54;21014;-65
2022/02/28 09:19:40;;;;;;;8.50;5.32;;;9.90;59.50;;;;;;2344796;55;21384;-65
2022/02/28 09:22:08;;;;;;;8.52;4.28;;;10.10;57.70;;;;;;2266655;56;20942;-64
2022/02/28 09:24:35;;;;;;;9.10;5.10;;;10.20;57.00;;;;;;2289853;55;20978;-64
2022/02/28 09:27:02;;;;;;;12.32;8.25;;;10.20;56.40;;;;;;2288335;55;21002;-64
2022/02/28 09:29:31;;;;;;;10.57;6.07;;;10.20;56.30;;;;;;2289425;55;20998;-64
2022/02/28 09:31:58;;;;;;;9.63;5.90;;;10.20;56.20;;;;;;2305759;55;20977;-65
2022/02/28 09:34:24;;;;;;;10.25;6.07;;;10.20;56.40;;;;;;2319369;55;20969;-66
2022/02/28 09:36:52;;;;;;;9.88;5.60;;;10.30;57.10;;;;;;2289126;55;20954;-64
2022/02/28 09:39:19;;;;;;;9.38;5.75;;;10.30;57.90;;;;;;2289785;55;20942;-64
2022/02/28 09:41:46;;;;;;;9.27;5.25;;;10.50;58.60;;;;;;2287917;55;21412;-66
2022/02/28 09:44:16;;;;;;;7.85;5.12;;;10.80;59.40;;;;;;2289210;55;20950;-64
2022/02/28 09:46:43;;;;;;;7.62;5.03;;;11.10;59.70;;;;;;2522370;55;21708;-64
2022/02/28 09:49:10;;;;;;;7.80;5.37;;;11.40;59.50;;;;;;2289171;55;21006;-65
2022/02/28 09:51:37;;;;;;;9.32;5.80;;;11.70;59.30;;;;;;2288633;55;21433;-63
2022/02/28 09:54:03;;;;;;;20.25;11.85;;;12.10;59.30;;;;;;2289097;55;20945;-64
2022/02/28 09:56:32;;;;;;;15.10;9.60;;;12.40;59.20;;;;;;2289055;55;20938;-66
2022/02/28 10:02:38;;;;;;;8.43;5.75;;;13.00;57.90;;;;;;2391104;55;20926;-65
2022/02/28 10:05:08;;;;;;;8.30;5.72;;;13.50;59.50;;;;;;2289808;55;20950;-68
2022/02/28 10:07:53;;;;;;;8.77;5.43;;;13.80;59.40;;;;;;2402214;55;20993;-66
2022/02/28 10:10:19;;;;;;;7.03;4.57;;;14.10;58.00;;;;;;2289545;55;21478;-69
2022/02/28 10:12:50;;;;;;;7.45;4.72;;;14.40;58.60;;;;;;2292233;55;20968;-65
2022/02/28 10:15:21;;;;;;;7.65;5.00;;;14.70;58.40;;;;;;2270998;55;21010;-66
2022/02/28 10:17:50;;;;;;;7.40;4.53;;;15.00;58.20;;;;;;2258881;55;20997;-66
2022/02/28 10:20:30;;;;;;;10.40;5.70;;;15.20;58.10;;;;;;2254026;57;20967;-69
2022/02/28 10:23:01;;;;;;;7.30;5.12;;;15.40;56.60;;;;;;2280203;56;20943;-67
2022/02/28 10:25:52;;;;;;;7.50;5.03;;;15.60;57.60;;;;;;2273938;56;20946;-65
2022/02/28 10:28:24;;;;;;;6.62;4.53;;;15.80;56.60;;;;;;2280818;56;20936;-66
2022/02/28 10:31:00;;;;;;;6.95;4.47;;;15.90;57.80;;;;;;2278512;55;21479;-67
2022/02/28 10:34:19;;;;;;;5.82;3.85;;;16.10;58.60;;;;;;2281040;56;21042;-66
2022/02/28 10:37:47;;;;;;;6.43;4.32;;;16.40;57.30;;;;;;2273768;56;20943;-69
2022/02/28 10:40:13;;;;;;;5.90;3.83;;;16.70;59.60;;;;;;2280440;56;21631;-67
2022/02/28 10:42:46;;;;;;;6.72;4.20;;;17.10;59.90;;;;;;2279855;56;20931;-67
2022/02/28 10:45:50;;;;;;;7.37;4.60;;;17.40;58.60;;;;;;2280998;55;21349;-68
2022/02/28 10:48:16;;;;;;;6.32;3.58;;;17.70;57.00;;;;;;2280285;56;20983;-67
2022/02/28 10:50:43;;;;;;;5.97;3.92;;;17.90;58.30;;;;;;2512804;55;20942;-67
2022/02/28 10:53:28;;;;;;;6.70;3.72;;;18.00;57.10;;;;;;2280170;56;21389;-67
2022/02/28 10:55:54;;;;;;;5.80;4.25;;;18.00;55.40;;;;;;2299884;55;20943;-68
2022/02/28 10:58:24;;;;;;;6.82;4.57;;;18.00;55.50;;;;;;2280338;56;20907;-67
2022/02/28 11:01:13;;;;;;;6.37;3.78;;;18.00;54.30;;;;;;2470628;55;20944;-67
2022/02/28 11:04:28;;;;;;;6.55;4.03;;;17.90;54.00;;;;;;2274233;56;20981;-67
2022/02/28 11:06:54;;;;;;;7.18;4.07;;;17.90;52.30;;;;;;2510242;55;21566;-67
2022/02/28 11:09:43;;;;;;;5.60;3.72;;;17.90;53.90;;;;;;2279106;55;21490;-69
2022/02/28 11:12:31;;;;;;;6.03;3.50;;;17.80;51.80;;;;;;2292364;55;21492;-67
2022/02/28 11:15:29;;;;;;;6.82;4.03;;;17.80;52.00;;;;;;2449445;55;20942;-68
2022/02/28 11:17:55;;;;;;;7.50;4.20;;;17.70;53.10;;;;;;2511111;55;21007;-67
2022/02/28 11:20:22;;;;;;;8.30;4.65;;;17.70;52.90;;;;;;2511322;55;20995;-67
2022/02/28 11:26:18;;;;;;;7.18;4.10;;;17.60;50.80;;;;;;2287259;55;21022;-67
2022/02/28 11:28:44;;;;;;;7.30;3.87;;;17.60;52.40;;;;;;2429568;55;20952;-69
2022/02/28 11:31:13;;;;;;;8.27;4.20;;;17.60;52.10;;;;;;2278246;56;20951;-67
2022/02/28 11:34:10;;;;;;;8.75;4.35;;;17.60;51.90;;;;;;2280329;55;21002;-67
2022/02/28 11:36:57;;;;;;;6.55;3.78;;;17.70;50.90;;;;;;2269260;55;20966;-69
2022/02/28 11:39:45;;;;;;;6.55;4.10;;;17.70;51.30;;;;;;2277426;55;21003;-68
2022/02/28 11:42:12;;;;;;;6.75;4.25;;;17.80;51.30;;;;;;2277040;56;21003;-66
2022/02/28 11:44:55;;;;;;;8.07;4.25;;;17.80;52.80;;;;;;2345384;55;20956;-68
2022/02/28 11:47:25;;;;;;;6.07;4.12;;;18.00;51.00;;;;;;2257374;55;20980;-70
2022/02/28 11:50:14;;;;;;;6.82;3.85;;;18.00;52.20;;;;;;2281909;56;20976;-71
2022/02/28 11:52:40;;;;;;;6.20;4.12;;;18.10;50.80;;;;;;2278164;56;21006;-67
2022/02/28 11:55:14;;;;;;;8.45;4.20;;;18.20;52.10;;;;;;2303979;55;21471;-68
2022/02/28 11:57:54;;;;;;;8.15;4.18;;;18.20;51.50;;;;;;2278614;56;20988;-67
2022/02/28 12:05:41;;;;;;;6.60;3.90;;;18.40;49.90;;;;;;2277796;55;21002;-66
2022/02/28 12:09:02;;;;;;;5.07;2.97;;;18.60;49.60;;;;;;2265966;59;21579;-68
2022/02/28 12:11:31;;;;;;;5.82;3.35;;;18.60;49.80;;;;;;2276911;55;21627;-67
2022/02/28 12:14:04;;;;;;;7.22;4.00;;;18.60;50.80;;;;;;2277939;56;21424;-68
2022/02/28 12:19:48;;;;;;;7.47;3.62;;;18.40;48.70;;;;;;2370154;55;21002;-69
2022/02/28 12:22:14;;;;;;;6.25;3.95;;;18.30;49.20;;;;;;2275989;55;20927;-70
2022/02/28 12:26:34;;;;;;;7.32;3.97;;;18.10;48.60;;;;;;2280413;55;21042;-68
2022/02/28 12:29:10;;;;;;;5.80;3.30;;;17.80;47.50;;;;;;2278771;55;20942;-71
2022/02/28 12:31:40;;;;;;;5.45;3.22;;;17.70;48.00;;;;;;2282711;55;20978;-67
2022/02/28 12:34:10;;;;;;;4.90;3.17;;;17.60;48.80;;;;;;2276590;55;20911;-69
2022/02/28 12:40:08;;;;;;;5.25;3.10;;;17.50;47.20;;;;;;2278525;56;20947;-69
2022/02/28 12:42:35;;;;;;;6.22;3.50;;;17.40;48.30;;;;;;2278408;56;20999;-68
2022/02/28 12:45:01;;;;;;;5.55;3.17;;;17.30;48.20;;;;;;2278469;55;21038;-67
2022/02/28 12:50:48;;;;;;;5.82;3.45;;;17.20;47.80;;;;;;2356608;55;20999;-69
2022/02/28 12:53:15;;;;;;;6.05;3.92;;;17.20;49.30;;;;;;2277991;55;20953;-69
2022/02/28 12:58:21;;;;;;;5.75;3.30;;;17.20;49.60;;;;;;2278300;56;20935;-69
2022/02/28 13:00:49;;;;;;;5.57;3.17;;;17.30;48.70;;;;;;2282499;55;22209;-70
2022/02/28 13:03:15;;;;;;;5.53;3.45;;;17.30;49.60;;;;;;2302213;55;21086;-67
2022/02/28 13:05:57;;;;;;;5.72;3.08;;;17.20;49.10;;;;;;2276527;55;21797;-68
2022/02/28 13:08:24;;;;;;;4.65;2.78;;;17.20;47.90;;;;;;2272157;56;21025;-67
2022/02/28 13:11:14;;;;;;;6.57;3.70;;;17.20;49.00;;;;;;2274708;56;20959;-66
2022/02/28 13:13:45;;;;;;;6.12;3.50;;;17.20;47.20;;;;;;2281529;56;20947;-68
2022/02/28 13:16:12;;;;;;;4.80;2.83;;;17.20;48.60;;;;;;2279386;55;21528;-68
2022/02/28 13:18:42;;;;;;;6.32;3.03;;;17.30;48.80;;;;;;2278449;55;21789;-67
2022/02/28 13:21:08;;;;;;;5.30;3.05;;;17.30;48.40;;;;;;2278311;56;20936;-70
2022/02/28 13:24:03;;;;;;;5.25;3.20;;;17.40;49.00;;;;;;2278123;56;21448;-67
2022/02/28 13:26:30;;;;;;;5.72;3.25;;;17.40;48.50;;;;;;2272280;56;21011;-68
2022/02/28 13:28:59;;;;;;;5.05;2.95;;;17.50;49.10;;;;;;2507768;55;20934;-67
2022/02/28 13:31:29;;;;;;;5.18;3.30;;;17.50;49.00;;;;;;2277161;55;20955;-68
2022/02/28 13:33:56;;;;;;;5.78;3.65;;;17.50;48.60;;;;;;2345527;55;21020;-68
2022/02/28 13:36:32;;;;;;;6.30;3.15;;;17.50;48.40;;;;;;2278113;56;21578;-67
2022/02/28 13:43:14;;;;;;;5.65;3.22;;;17.50;46.60;;;;;;2272965;56;20987;-68